sensor_id;sensor_type;location;lat;lon;timestamp;temperature;humidity
64638;HTU21D;51049;45.046;38.950;2023-05-29T00:00:50;20.61;68.55
64638;HTU21D;51049;45.046;38.950;2023-05-29T00:03:17;20.59;68.54
64638;HTU21D;51049;45.046;38.950;2023-05-29T00:05:44;20.57;68.57
64638;HTU21D;51049;45.046;38.950;2023-05-29T00:08:10;20.56;68.60
64638;HTU21D;51049;45.046;38.950;2023-05-29T00:10:35;20.53;68.65
64638;HTU21D;51049;45.046;38.950;2023-05-29T00:13:03;20.51;68.65
64638;HTU21D;51049;45.046;38.950;2023-05-29T00:15:29;20.50;68.69
64638;HTU21D;51049;45.046;38.950;2023-05-29T00:17:56;20.48;68.76
64638;HTU21D;51049;45.046;38.950;2023-05-29T00:20:21;20.47;68.78
64638;HTU21D;51049;45.046;38.950;2023-05-29T00:22:47;20.46;68.81
64638;HTU21D;51049;45.046;38.950;2023-05-29T00:25:14;20.45;68.84
64638;HTU21D;51049;45.046;38.950;2023-05-29T00:27:41;20.46;68.85
64638;HTU21D;51049;45.046;38.950;2023-05-29T00:30:07;20.44;68.87
64638;HTU21D;51049;45.046;38.950;2023-05-29T00:32:33;20.45;68.94
64638;HTU21D;51049;45.046;38.950;2023-05-29T00:35:00;20.44;68.97
64638;HTU21D;51049;45.046;38.950;2023-05-29T00:37:26;20.44;68.98
64638;HTU21D;51049;45.046;38.950;2023-05-29T00:39:51;20.44;69.02
64638;HTU21D;51049;45.046;38.950;2023-05-29T00:42:17;20.43;69.08
64638;HTU21D;51049;45.046;38.950;2023-05-29T00:44:44;20.44;69.15
64638;HTU21D;51049;45.046;38.950;2023-05-29T00:47:10;20.42;69.18
64638;HTU21D;51049;45.046;38.950;2023-05-29T00:49:36;20.41;69.20
64638;HTU21D;51049;45.046;38.950;2023-05-29T00:52:03;20.41;69.20
64638;HTU21D;51049;45.046;38.950;2023-05-29T00:54:32;20.40;69.23
64638;HTU21D;51049;45.046;38.950;2023-05-29T00:56:58;20.37;69.29
64638;HTU21D;51049;45.046;38.950;2023-05-29T00:59:32;20.36;69.39
64638;HTU21D;51049;45.046;38.950;2023-05-29T01:02:00;20.34;69.36
64638;HTU21D;51049;45.046;38.950;2023-05-29T01:04:26;20.32;69.39
64638;HTU21D;51049;45.046;38.950;2023-05-29T01:06:53;20.30;69.45
64638;HTU21D;51049;45.046;38.950;2023-05-29T01:09:19;20.29;69.45
64638;HTU21D;51049;45.046;38.950;2023-05-29T01:28:52;20.09;69.78
64638;HTU21D;51049;45.046;38.950;2023-05-29T01:31:20;20.05;69.82
64638;HTU21D;51049;45.046;38.950;2023-05-29T01:33:53;20.03;69.69
64638;HTU21D;51049;45.046;38.950;2023-05-29T01:36:19;19.98;69.72
64638;HTU21D;51049;45.046;38.950;2023-05-29T01:38:46;19.94;69.90
64638;HTU21D;51049;45.046;38.950;2023-05-29T01:41:12;19.90;70.01
64638;HTU21D;51049;45.046;38.950;2023-05-29T01:43:39;19.87;70.13
64638;HTU21D;51049;45.046;38.950;2023-05-29T01:46:05;19.84;70.32
64638;HTU21D;51049;45.046;38.950;2023-05-29T01:48:31;19.83;70.50
64638;HTU21D;51049;45.046;38.950;2023-05-29T01:50:58;19.82;70.59
64638;HTU21D;51049;45.046;38.950;2023-05-29T01:53:24;19.79;70.68
64638;HTU21D;51049;45.046;38.950;2023-05-29T01:55:51;19.76;70.76
64638;HTU21D;51049;45.046;38.950;2023-05-29T01:58:18;19.73;70.81
64638;HTU21D;51049;45.046;38.950;2023-05-29T02:00:46;19.73;70.96
64638;HTU21D;51049;45.046;38.950;2023-05-29T02:03:12;19.72;71.04
64638;HTU21D;51049;45.046;38.950;2023-05-29T02:05:38;19.72;71.17
64638;HTU21D;51049;45.046;38.950;2023-05-29T02:08:04;19.75;71.26
64638;HTU21D;51049;45.046;38.950;2023-05-29T02:10:31;19.75;71.32
64638;HTU21D;51049;45.046;38.950;2023-05-29T02:12:57;19.77;71.35
64638;HTU21D;51049;45.046;38.950;2023-05-29T02:15:23;19.79;71.37
64638;HTU21D;51049;45.046;38.950;2023-05-29T02:17:50;19.81;71.41
64638;HTU21D;51049;45.046;38.950;2023-05-29T02:20:17;19.85;71.45
64638;HTU21D;51049;45.046;38.950;2023-05-29T02:22:43;19.89;71.46
64638;HTU21D;51049;45.046;38.950;2023-05-29T02:25:09;19.95;71.45
64638;HTU21D;51049;45.046;38.950;2023-05-29T02:27:35;20.00;71.35
64638;HTU21D;51049;45.046;38.950;2023-05-29T02:30:01;20.05;71.33
64638;HTU21D;51049;45.046;38.950;2023-05-29T02:32:27;20.09;71.36
64638;HTU21D;51049;45.046;38.950;2023-05-29T02:34:54;20.14;71.39
64638;HTU21D;51049;45.046;38.950;2023-05-29T02:37:20;20.20;71.36
64638;HTU21D;51049;45.046;38.950;2023-05-29T02:39:46;20.25;71.37
64638;HTU21D;51049;45.046;38.950;2023-05-29T02:42:11;20.29;71.32
64638;HTU21D;51049;45.046;38.950;2023-05-29T02:44:37;20.34;71.29
64638;HTU21D;51049;45.046;38.950;2023-05-29T02:47:03;20.40;71.22
64638;HTU21D;51049;45.046;38.950;2023-05-29T02:49:30;20.45;71.17
64638;HTU21D;51049;45.046;38.950;2023-05-29T02:51:57;20.48;71.10
64638;HTU21D;51049;45.046;38.950;2023-05-29T02:54:26;20.50;71.10
64638;HTU21D;51049;45.046;38.950;2023-05-29T02:56:52;20.53;71.03
64638;HTU21D;51049;45.046;38.950;2023-05-29T02:59:18;20.56;71.00
64638;HTU21D;51049;45.046;38.950;2023-05-29T03:01:44;20.58;71.00
64638;HTU21D;51049;45.046;38.950;2023-05-29T03:04:11;20.61;70.97
64638;HTU21D;51049;45.046;38.950;2023-05-29T03:06:38;20.65;70.91
64638;HTU21D;51049;45.046;38.950;2023-05-29T03:09:06;20.69;70.87
64638;HTU21D;51049;45.046;38.950;2023-05-29T03:11:32;20.72;70.81
64638;HTU21D;51049;45.046;38.950;2023-05-29T03:13:58;20.77;70.76
64638;HTU21D;51049;45.046;38.950;2023-05-29T03:16:24;20.84;70.70
64638;HTU21D;51049;45.046;38.950;2023-05-29T03:18:51;20.89;70.64
64638;HTU21D;51049;45.046;38.950;2023-05-29T03:21:19;20.98;70.52
64638;HTU21D;51049;45.046;38.950;2023-05-29T03:23:45;21.10;70.40
64638;HTU21D;51049;45.046;38.950;2023-05-29T03:26:12;21.20;70.25
64638;HTU21D;51049;45.046;38.950;2023-05-29T03:28:39;21.34;70.10
64638;HTU21D;51049;45.046;38.950;2023-05-29T03:31:08;21.46;69.92
64638;HTU21D;51049;45.046;38.950;2023-05-29T03:33:35;21.58;69.76
64638;HTU21D;51049;45.046;38.950;2023-05-29T03:36:13;21.72;69.58
64638;HTU21D;51049;45.046;38.950;2023-05-29T03:38:40;21.84;69.38
64638;HTU21D;51049;45.046;38.950;2023-05-29T03:41:06;21.95;69.22
64638;HTU21D;51049;45.046;38.950;2023-05-29T03:43:32;22.03;69.06
64638;HTU21D;51049;45.046;38.950;2023-05-29T03:45:58;22.12;68.84
64638;HTU21D;51049;45.046;38.950;2023-05-29T03:48:27;22.21;68.71
64638;HTU21D;51049;45.046;38.950;2023-05-29T03:50:53;22.34;68.58
64638;HTU21D;51049;45.046;38.950;2023-05-29T03:53:26;22.46;68.36
64638;HTU21D;51049;45.046;38.950;2023-05-29T03:55:52;22.54;68.19
64638;HTU21D;51049;45.046;38.950;2023-05-29T03:58:19;22.65;68.07
64638;HTU21D;51049;45.046;38.950;2023-05-29T04:00:45;22.71;67.82
64638;HTU21D;51049;45.046;38.950;2023-05-29T04:03:13;22.72;67.61
64638;HTU21D;51049;45.046;38.950;2023-05-29T04:05:40;22.76;67.53
64638;HTU21D;51049;45.046;38.950;2023-05-29T04:08:08;22.80;67.45
64638;HTU21D;51049;45.046;38.950;2023-05-29T04:10:34;22.84;67.32
64638;HTU21D;51049;45.046;38.950;2023-05-29T04:13:00;22.87;67.19
64638;HTU21D;51049;45.046;38.950;2023-05-29T04:15:27;22.93;67.06
64638;HTU21D;51049;45.046;38.950;2023-05-29T04:17:54;22.96;66.88
64638;HTU21D;51049;45.046;38.950;2023-05-29T04:20:21;22.98;66.90
64638;HTU21D;51049;45.046;38.950;2023-05-29T04:22:47;23.02;66.83
64638;HTU21D;51049;45.046;38.950;2023-05-29T04:25:13;23.03;66.72
64638;HTU21D;51049;45.046;38.950;2023-05-29T04:27:39;23.01;66.63
64638;HTU21D;51049;45.046;38.950;2023-05-29T04:30:08;22.98;66.56
64638;HTU21D;51049;45.046;38.950;2023-05-29T04:32:39;22.95;66.54
64638;HTU21D;51049;45.046;38.950;2023-05-29T04:35:06;22.92;66.57
64638;HTU21D;51049;45.046;38.950;2023-05-29T04:37:35;22.87;66.55
64638;HTU21D;51049;45.046;38.950;2023-05-29T04:40:07;22.83;66.46
64638;HTU21D;51049;45.046;38.950;2023-05-29T04:42:36;22.79;66.44
64638;HTU21D;51049;45.046;38.950;2023-05-29T04:45:03;22.79;66.41
64638;HTU21D;51049;45.046;38.950;2023-05-29T04:47:36;22.76;66.42
64638;HTU21D;51049;45.046;38.950;2023-05-29T04:50:11;22.73;66.42
64638;HTU21D;51049;45.046;38.950;2023-05-29T04:52:39;22.72;66.34
64638;HTU21D;51049;45.046;38.950;2023-05-29T04:55:08;22.71;66.30
64638;HTU21D;51049;45.046;38.950;2023-05-29T04:57:34;22.69;66.29
64638;HTU21D;51049;45.046;38.950;2023-05-29T05:00:00;22.66;66.27
64638;HTU21D;51049;45.046;38.950;2023-05-29T05:02:27;22.62;66.28
64638;HTU21D;51049;45.046;38.950;2023-05-29T05:04:53;22.60;66.27
64638;HTU21D;51049;45.046;38.950;2023-05-29T05:07:18;22.61;66.31
64638;HTU21D;51049;45.046;38.950;2023-05-29T05:09:46;22.64;66.29
64638;HTU21D;51049;45.046;38.950;2023-05-29T05:12:19;22.68;66.23
64638;HTU21D;51049;45.046;38.950;2023-05-29T05:14:45;22.71;66.19
64638;HTU21D;51049;45.046;38.950;2023-05-29T05:17:11;22.76;66.14
64638;HTU21D;51049;45.046;38.950;2023-05-29T05:19:37;22.79;66.11
64638;HTU21D;51049;45.046;38.950;2023-05-29T05:22:03;22.82;66.09
64638;HTU21D;51049;45.046;38.950;2023-05-29T05:24:29;22.84;65.98
64638;HTU21D;51049;45.046;38.950;2023-05-29T05:26:57;22.82;65.92
64638;HTU21D;51049;45.046;38.950;2023-05-29T05:29:23;22.79;65.94
64638;HTU21D;51049;45.046;38.950;2023-05-29T05:31:49;22.78;65.96
64638;HTU21D;51049;45.046;38.950;2023-05-29T05:34:16;22.75;66.03
64638;HTU21D;51049;45.046;38.950;2023-05-29T05:36:43;22.72;66.06
64638;HTU21D;51049;45.046;38.950;2023-05-29T05:39:13;22.69;66.16
64638;HTU21D;51049;45.046;38.950;2023-05-29T05:41:41;22.66;66.21
64638;HTU21D;51049;45.046;38.950;2023-05-29T05:44:07;22.62;66.24
64638;HTU21D;51049;45.046;38.950;2023-05-29T05:46:53;22.54;66.31
64638;HTU21D;51049;45.046;38.950;2023-05-29T05:49:20;22.51;66.41
64638;HTU21D;51049;45.046;38.950;2023-05-29T05:51:46;22.48;66.46
64638;HTU21D;51049;45.046;38.950;2023-05-29T05:54:12;22.43;66.55
64638;HTU21D;51049;45.046;38.950;2023-05-29T05:56:38;22.40;66.59
64638;HTU21D;51049;45.046;38.950;2023-05-29T05:59:07;22.35;66.67
64638;HTU21D;51049;45.046;38.950;2023-05-29T06:01:33;22.31;66.77
64638;HTU21D;51049;45.046;38.950;2023-05-29T06:03:59;22.21;66.89
64638;HTU21D;51049;45.046;38.950;2023-05-29T06:06:25;22.08;67.02
64638;HTU21D;51049;45.046;38.950;2023-05-29T06:08:52;21.94;67.18
64638;HTU21D;51049;45.046;38.950;2023-05-29T06:11:18;21.80;67.43
64638;HTU21D;51049;45.046;38.950;2023-05-29T06:13:47;21.65;67.68
64638;HTU21D;51049;45.046;38.950;2023-05-29T06:16:21;21.49;67.90
64638;HTU21D;51049;45.046;38.950;2023-05-29T06:18:47;21.37;68.13
64638;HTU21D;51049;45.046;38.950;2023-05-29T06:21:13;21.25;68.47
64638;HTU21D;51049;45.046;38.950;2023-05-29T06:23:45;21.13;68.71
64638;HTU21D;51049;45.046;38.950;2023-05-29T06:26:11;21.03;68.93
64638;HTU21D;51049;45.046;38.950;2023-05-29T06:28:38;20.92;69.10
64638;HTU21D;51049;45.046;38.950;2023-05-29T06:31:03;20.84;69.22
64638;HTU21D;51049;45.046;38.950;2023-05-29T06:33:30;20.78;69.26
64638;HTU21D;51049;45.046;38.950;2023-05-29T06:35:56;20.75;69.26
64638;HTU21D;51049;45.046;38.950;2023-05-29T06:38:22;20.73;69.28
64638;HTU21D;51049;45.046;38.950;2023-05-29T06:40:57;20.74;69.46
64638;HTU21D;51049;45.046;38.950;2023-05-29T06:43:23;20.75;69.47
64638;HTU21D;51049;45.046;38.950;2023-05-29T06:45:54;20.73;69.51
64638;HTU21D;51049;45.046;38.950;2023-05-29T06:48:20;20.75;69.62
64638;HTU21D;51049;45.046;38.950;2023-05-29T06:50:48;20.76;69.62
64638;HTU21D;51049;45.046;38.950;2023-05-29T06:53:38;20.76;69.79
64638;HTU21D;51049;45.046;38.950;2023-05-29T06:56:05;20.79;69.53
64638;HTU21D;51049;45.046;38.950;2023-05-29T06:58:33;20.83;69.61
64638;HTU21D;51049;45.046;38.950;2023-05-29T07:00:59;20.87;69.90
64638;HTU21D;51049;45.046;38.950;2023-05-29T07:03:37;20.92;70.05
64638;HTU21D;51049;45.046;38.950;2023-05-29T07:06:04;20.96;70.21
64638;HTU21D;51049;45.046;38.950;2023-05-29T07:08:32;21.00;70.40
64638;HTU21D;51049;45.046;38.950;2023-05-29T07:10:58;21.04;70.47
64638;HTU21D;51049;45.046;38.950;2023-05-29T07:13:25;21.05;70.55
64638;HTU21D;51049;45.046;38.950;2023-05-29T07:15:51;21.05;70.61
64638;HTU21D;51049;45.046;38.950;2023-05-29T07:18:22;21.07;70.70
64638;HTU21D;51049;45.046;38.950;2023-05-29T07:20:49;21.08;70.81
64638;HTU21D;51049;45.046;38.950;2023-05-29T07:23:18;21.11;70.88
64638;HTU21D;51049;45.046;38.950;2023-05-29T07:25:44;21.15;70.96
64638;HTU21D;51049;45.046;38.950;2023-05-29T07:28:10;21.16;70.97
64638;HTU21D;51049;45.046;38.950;2023-05-29T07:30:36;21.16;71.11
64638;HTU21D;51049;45.046;38.950;2023-05-29T07:33:03;21.16;71.15
64638;HTU21D;51049;45.046;38.950;2023-05-29T07:35:29;21.16;71.24
64638;HTU21D;51049;45.046;38.950;2023-05-29T07:37:58;21.15;71.36
64638;HTU21D;51049;45.046;38.950;2023-05-29T07:40:24;21.15;71.43
64638;HTU21D;51049;45.046;38.950;2023-05-29T07:43:09;21.18;71.50
64638;HTU21D;51049;45.046;38.950;2023-05-29T07:45:46;21.20;71.57
64638;HTU21D;51049;45.046;38.950;2023-05-29T07:48:12;21.21;71.63
64638;HTU21D;51049;45.046;38.950;2023-05-29T07:50:38;21.22;71.64
64638;HTU21D;51049;45.046;38.950;2023-05-29T07:53:06;21.21;71.66
64638;HTU21D;51049;45.046;38.950;2023-05-29T07:55:35;21.19;71.72
64638;HTU21D;51049;45.046;38.950;2023-05-29T07:58:01;21.16;71.85
64638;HTU21D;51049;45.046;38.950;2023-05-29T08:00:28;21.10;71.93
64638;HTU21D;51049;45.046;38.950;2023-05-29T08:02:54;21.05;72.07
64638;HTU21D;51049;45.046;38.950;2023-05-29T08:05:29;20.99;72.25
64638;HTU21D;51049;45.046;38.950;2023-05-29T08:07:58;20.91;72.39
64638;HTU21D;51049;45.046;38.950;2023-05-29T08:10:25;20.87;72.58
64638;HTU21D;51049;45.046;38.950;2023-05-29T08:12:51;20.84;72.74
64638;HTU21D;51049;45.046;38.950;2023-05-29T08:15:19;20.81;72.86
64638;HTU21D;51049;45.046;38.950;2023-05-29T08:17:45;20.79;73.03
64638;HTU21D;51049;45.046;38.950;2023-05-29T08:20:11;20.81;73.03
64638;HTU21D;51049;45.046;38.950;2023-05-29T08:22:37;20.83;73.03
64638;HTU21D;51049;45.046;38.950;2023-05-29T08:25:03;20.89;73.06
64638;HTU21D;51049;45.046;38.950;2023-05-29T08:27:29;20.92;73.04
64638;HTU21D;51049;45.046;38.950;2023-05-29T08:29:55;20.92;73.03
64638;HTU21D;51049;45.046;38.950;2023-05-29T08:32:22;20.91;73.00
64638;HTU21D;51049;45.046;38.950;2023-05-29T08:34:48;20.89;73.04
64638;HTU21D;51049;45.046;38.950;2023-05-29T08:37:15;20.88;73.16
64638;HTU21D;51049;45.046;38.950;2023-05-29T08:39:41;20.88;73.20
64638;HTU21D;51049;45.046;38.950;2023-05-29T08:42:12;20.87;73.32
64638;HTU21D;51049;45.046;38.950;2023-05-29T08:44:40;20.87;73.35
64638;HTU21D;51049;45.046;38.950;2023-05-29T08:47:07;20.87;73.42
64638;HTU21D;51049;45.046;38.950;2023-05-29T08:49:41;20.86;73.46
64638;HTU21D;51049;45.046;38.950;2023-05-29T08:52:20;20.86;73.51
64638;HTU21D;51049;45.046;38.950;2023-05-29T08:54:46;20.88;73.52
64638;HTU21D;51049;45.046;38.950;2023-05-29T08:57:12;20.92;73.61
64638;HTU21D;51049;45.046;38.950;2023-05-29T08:59:50;20.99;73.66
64638;HTU21D;51049;45.046;38.950;2023-05-29T09:02:16;21.07;73.65
64638;HTU21D;51049;45.046;38.950;2023-05-29T09:04:43;21.18;73.66
64638;HTU21D;51049;45.046;38.950;2023-05-29T09:07:18;21.35;73.59
64638;HTU21D;51049;45.046;38.950;2023-05-29T09:09:45;21.54;73.42
64638;HTU21D;51049;45.046;38.950;2023-05-29T09:12:12;21.77;73.22
64638;HTU21D;51049;45.046;38.950;2023-05-29T09:14:39;22.02;72.98
64638;HTU21D;51049;45.046;38.950;2023-05-29T09:17:07;22.24;72.65
64638;HTU21D;51049;45.046;38.950;2023-05-29T09:19:35;22.41;72.27
64638;HTU21D;51049;45.046;38.950;2023-05-29T09:22:09;22.51;71.96
64638;HTU21D;51049;45.046;38.950;2023-05-29T09:24:36;22.57;71.84
64638;HTU21D;51049;45.046;38.950;2023-05-29T09:27:04;22.64;71.73
64638;HTU21D;51049;45.046;38.950;2023-05-29T09:29:31;22.65;71.61
64638;HTU21D;51049;45.046;38.950;2023-05-29T09:31:59;22.67;71.44
64638;HTU21D;51049;45.046;38.950;2023-05-29T09:34:26;22.64;71.35
64638;HTU21D;51049;45.046;38.950;2023-05-29T09:36:53;22.61;71.44
64638;HTU21D;51049;45.046;38.950;2023-05-29T09:39:19;22.56;71.51
64638;HTU21D;51049;45.046;38.950;2023-05-29T09:41:45;22.55;71.48
64638;HTU21D;51049;45.046;38.950;2023-05-29T09:44:15;22.53;71.48
64638;HTU21D;51049;45.046;38.950;2023-05-29T09:46:41;22.56;71.36
64638;HTU21D;51049;45.046;38.950;2023-05-29T09:49:14;22.57;71.25
64638;HTU21D;51049;45.046;38.950;2023-05-29T09:51:42;22.58;71.19
64638;HTU21D;51049;45.046;38.950;2023-05-29T09:54:17;22.58;71.20
64638;HTU21D;51049;45.046;38.950;2023-05-29T09:56:44;22.62;71.22
64638;HTU21D;51049;45.046;38.950;2023-05-29T09:59:12;22.69;71.11
64638;HTU21D;51049;45.046;38.950;2023-05-29T10:01:44;22.76;71.00
64638;HTU21D;51049;45.046;38.950;2023-05-29T10:04:10;22.80;70.83
64638;HTU21D;51049;45.046;38.950;2023-05-29T10:06:38;22.82;70.68
64638;HTU21D;51049;45.046;38.950;2023-05-29T10:09:09;22.85;70.61
64638;HTU21D;51049;45.046;38.950;2023-05-29T10:11:38;22.83;70.52
64638;HTU21D;51049;45.046;38.950;2023-05-29T10:14:09;22.82;70.47
64638;HTU21D;51049;45.046;38.950;2023-05-29T10:16:40;22.79;70.62
64638;HTU21D;51049;45.046;38.950;2023-05-29T10:19:12;22.82;70.63
64638;HTU21D;51049;45.046;38.950;2023-05-29T10:21:40;22.80;70.55
64638;HTU21D;51049;45.046;38.950;2023-05-29T10:24:08;22.84;70.53
64638;HTU21D;51049;45.046;38.950;2023-05-29T10:26:39;22.90;70.48
64638;HTU21D;51049;45.046;38.950;2023-05-29T10:37:06;23.22;69.91
64638;HTU21D;51049;45.046;38.950;2023-05-29T10:39:34;23.34;69.65
64638;HTU21D;51049;45.046;38.950;2023-05-29T10:42:00;23.41;69.36
64638;HTU21D;51049;45.046;38.950;2023-05-29T10:47:04;23.54;69.16
64638;HTU21D;51049;45.046;38.950;2023-05-29T10:49:30;23.68;69.09
64638;HTU21D;51049;45.046;38.950;2023-05-29T10:51:58;23.82;68.85
64638;HTU21D;51049;45.046;38.950;2023-05-29T10:54:26;23.89;68.51
64638;HTU21D;51049;45.046;38.950;2023-05-29T10:57:00;23.91;68.52
64638;HTU21D;51049;45.046;38.950;2023-05-29T10:59:27;23.88;68.45
64638;HTU21D;51049;45.046;38.950;2023-05-29T11:01:55;23.86;68.51
64638;HTU21D;51049;45.046;38.950;2023-05-29T11:06:52;23.77;68.55
64638;HTU21D;51049;45.046;38.950;2023-05-29T11:09:48;23.73;68.61
64638;HTU21D;51049;45.046;38.950;2023-05-29T11:12:25;23.68;68.68
64638;HTU21D;51049;45.046;38.950;2023-05-29T11:15:07;23.62;68.77
64638;HTU21D;51049;45.046;38.950;2023-05-29T11:20:17;23.59;68.77
64638;HTU21D;51049;45.046;38.950;2023-05-29T11:25:15;23.58;68.81
64638;HTU21D;51049;45.046;38.950;2023-05-29T11:27:43;23.57;68.83
64638;HTU21D;51049;45.046;38.950;2023-05-29T11:30:10;23.59;68.83
64638;HTU21D;51049;45.046;38.950;2023-05-29T11:32:37;23.66;68.81
64638;HTU21D;51049;45.046;38.950;2023-05-29T11:35:13;23.79;68.63
64638;HTU21D;51049;45.046;38.950;2023-05-29T11:37:43;23.97;68.36
64638;HTU21D;51049;45.046;38.950;2023-05-29T11:40:11;24.24;67.93
64638;HTU21D;51049;45.046;38.950;2023-05-29T11:42:43;24.45;67.49
64638;HTU21D;51049;45.046;38.950;2023-05-29T11:45:20;24.60;67.20
64638;HTU21D;51049;45.046;38.950;2023-05-29T11:47:57;24.62;67.04
64638;HTU21D;51049;45.046;38.950;2023-05-29T11:50:28;24.57;67.00
64638;HTU21D;51049;45.046;38.950;2023-05-29T11:52:55;24.46;67.24
64638;HTU21D;51049;45.046;38.950;2023-05-29T11:55:22;24.33;67.33
64638;HTU21D;51049;45.046;38.950;2023-05-29T11:57:49;24.19;67.46
64638;HTU21D;51049;45.046;38.950;2023-05-29T12:00:16;24.04;67.64
64638;HTU21D;51049;45.046;38.950;2023-05-29T12:02:43;23.86;67.88
64638;HTU21D;51049;45.046;38.950;2023-05-29T12:05:09;23.72;68.07
64638;HTU21D;51049;45.046;38.950;2023-05-29T12:07:36;23.60;68.26
64638;HTU21D;51049;45.046;38.950;2023-05-29T12:10:12;23.50;68.46
64638;HTU21D;51049;45.046;38.950;2023-05-29T12:12:40;23.41;68.64
64638;HTU21D;51049;45.046;38.950;2023-05-29T12:15:07;23.38;68.77
64638;HTU21D;51049;45.046;38.950;2023-05-29T12:17:34;23.37;68.79
64638;HTU21D;51049;45.046;38.950;2023-05-29T12:20:03;23.40;68.71
64638;HTU21D;51049;45.046;38.950;2023-05-29T12:22:33;23.51;68.69
64638;HTU21D;51049;45.046;38.950;2023-05-29T12:25:16;23.79;68.48
64638;HTU21D;51049;45.046;38.950;2023-05-29T12:27:44;24.08;68.08
64638;HTU21D;51049;45.046;38.950;2023-05-29T12:30:14;24.34;67.64
64638;HTU21D;51049;45.046;38.950;2023-05-29T12:32:45;24.55;67.31
64638;HTU21D;51049;45.046;38.950;2023-05-29T12:35:12;24.77;66.98
64638;HTU21D;51049;45.046;38.950;2023-05-29T12:37:46;25.27;66.77
64638;HTU21D;51049;45.046;38.950;2023-05-29T12:42:42;26.71;63.85
64638;HTU21D;51049;45.046;38.950;2023-05-29T12:45:08;26.99;63.10
64638;HTU21D;51049;45.046;38.950;2023-05-29T12:47:36;27.16;62.69
64638;HTU21D;51049;45.046;38.950;2023-05-29T12:50:28;27.64;62.10
64638;HTU21D;51049;45.046;38.950;2023-05-29T12:52:55;28.49;60.54
64638;HTU21D;51049;45.046;38.950;2023-05-29T12:55:21;29.35;59.32
64638;HTU21D;51049;45.046;38.950;2023-05-29T12:57:47;30.05;57.57
64638;HTU21D;51049;45.046;38.950;2023-05-29T13:00:13;30.23;56.61
64638;HTU21D;51049;45.046;38.950;2023-05-29T13:02:39;30.34;56.48
64638;HTU21D;51049;45.046;38.950;2023-05-29T13:05:06;30.63;55.72
64638;HTU21D;51049;45.046;38.950;2023-05-29T13:07:33;30.67;55.01
64638;HTU21D;51049;45.046;38.950;2023-05-29T13:09:59;30.48;54.79
64638;HTU21D;51049;45.046;38.950;2023-05-29T13:12:27;30.36;54.71
64638;HTU21D;51049;45.046;38.950;2023-05-29T13:14:53;30.05;54.69
64638;HTU21D;51049;45.046;38.950;2023-05-29T13:17:21;29.93;55.19
64638;HTU21D;51049;45.046;38.950;2023-05-29T13:19:47;30.07;54.44
64638;HTU21D;51049;45.046;38.950;2023-05-29T13:22:13;30.18;54.05
64638;HTU21D;51049;45.046;38.950;2023-05-29T13:24:40;30.11;53.70
64638;HTU21D;51049;45.046;38.950;2023-05-29T13:27:07;29.85;53.78
64638;HTU21D;51049;45.046;38.950;2023-05-29T13:29:33;29.73;54.05
64638;HTU21D;51049;45.046;38.950;2023-05-29T13:32:00;29.52;54.06
64638;HTU21D;51049;45.046;38.950;2023-05-29T13:34:26;29.28;54.52
64638;HTU21D;51049;45.046;38.950;2023-05-29T13:36:55;28.98;54.95
64638;HTU21D;51049;45.046;38.950;2023-05-29T13:39:21;28.83;55.16
64638;HTU21D;51049;45.046;38.950;2023-05-29T13:41:47;28.67;55.05
64638;HTU21D;51049;45.046;38.950;2023-05-29T13:44:13;28.48;55.38
64638;HTU21D;51049;45.046;38.950;2023-05-29T13:46:39;28.86;55.11
64638;HTU21D;51049;45.046;38.950;2023-05-29T13:49:05;29.51;54.05
64638;HTU21D;51049;45.046;38.950;2023-05-29T13:51:33;29.89;53.56
64638;HTU21D;51049;45.046;38.950;2023-05-29T13:53:59;30.13;53.01
64638;HTU21D;51049;45.046;38.950;2023-05-29T13:56:25;30.44;52.31
64638;HTU21D;51049;45.046;38.950;2023-05-29T13:58:55;30.66;51.85
64638;HTU21D;51049;45.046;38.950;2023-05-29T14:01:21;30.74;51.46
64638;HTU21D;51049;45.046;38.950;2023-05-29T14:03:49;30.46;51.68
64638;HTU21D;51049;45.046;38.950;2023-05-29T14:06:15;30.13;52.02
64638;HTU21D;51049;45.046;38.950;2023-05-29T14:08:41;29.74;52.49
64638;HTU21D;51049;45.046;38.950;2023-05-29T14:11:07;29.37;52.98
64638;HTU21D;51049;45.046;38.950;2023-05-29T14:13:33;29.03;53.51
64638;HTU21D;51049;45.046;38.950;2023-05-29T14:15:59;29.03;53.63
64638;HTU21D;51049;45.046;38.950;2023-05-29T14:18:25;28.92;53.54
64638;HTU21D;51049;45.046;38.950;2023-05-29T14:20:51;28.57;53.88
64638;HTU21D;51049;45.046;38.950;2023-05-29T14:23:17;28.09;54.55
64638;HTU21D;51049;45.046;38.950;2023-05-29T14:25:43;27.63;55.25
64638;HTU21D;51049;45.046;38.950;2023-05-29T14:28:10;27.31;55.87
64638;HTU21D;51049;45.046;38.950;2023-05-29T14:30:39;27.44;56.08
64638;HTU21D;51049;45.046;38.950;2023-05-29T14:33:05;27.66;55.37
64638;HTU21D;51049;45.046;38.950;2023-05-29T14:35:31;27.55;55.34
64638;HTU21D;51049;45.046;38.950;2023-05-29T14:37:57;27.38;55.72
64638;HTU21D;51049;45.046;38.950;2023-05-29T14:40:23;27.55;55.65
64638;HTU21D;51049;45.046;38.950;2023-05-29T14:42:49;28.12;54.70
64638;HTU21D;51049;45.046;38.950;2023-05-29T14:45:16;28.63;53.75
64638;HTU21D;51049;45.046;38.950;2023-05-29T14:47:42;29.04;53.07
64638;HTU21D;51049;45.046;38.950;2023-05-29T14:50:08;29.35;52.52
64638;HTU21D;51049;45.046;38.950;2023-05-29T14:52:35;29.68;52.03
64638;HTU21D;51049;45.046;38.950;2023-05-29T14:55:04;30.02;51.46
64638;HTU21D;51049;45.046;38.950;2023-05-29T14:57:31;30.25;51.11
64638;HTU21D;51049;45.046;38.950;2023-05-29T15:00:01;30.51;50.84
64638;HTU21D;51049;45.046;38.950;2023-05-29T15:02:27;30.63;50.40
64638;HTU21D;51049;45.046;38.950;2023-05-29T15:04:53;30.66;50.23
64638;HTU21D;51049;45.046;38.950;2023-05-29T15:07:20;30.39;50.53
64638;HTU21D;51049;45.046;38.950;2023-05-29T15:09:45;29.93;51.22
64638;HTU21D;51049;45.046;38.950;2023-05-29T15:12:11;29.74;51.57
64638;HTU21D;51049;45.046;38.950;2023-05-29T15:14:37;29.74;51.46
64638;HTU21D;51049;45.046;38.950;2023-05-29T15:17:04;29.49;51.62
64638;HTU21D;51049;45.046;38.950;2023-05-29T15:19:30;29.03;52.40
64638;HTU21D;51049;45.046;38.950;2023-05-29T15:21:57;28.53;53.16
64638;HTU21D;51049;45.046;38.950;2023-05-29T15:24:23;28.01;54.01
64638;HTU21D;51049;45.046;38.950;2023-05-29T15:26:49;27.71;54.49
64638;HTU21D;51049;45.046;38.950;2023-05-29T15:29:16;27.43;54.97
64638;HTU21D;51049;45.046;38.950;2023-05-29T15:31:42;27.09;55.67
64638;HTU21D;51049;45.046;38.950;2023-05-29T15:34:08;26.79;56.26
64638;HTU21D;51049;45.046;38.950;2023-05-29T15:36:34;26.77;56.61
64638;HTU21D;51049;45.046;38.950;2023-05-29T15:39:02;26.97;56.18
64638;HTU21D;51049;45.046;38.950;2023-05-29T15:41:28;27.14;55.66
64638;HTU21D;51049;45.046;38.950;2023-05-29T15:43:55;27.27;55.28